Time;durP1;ratioP1;P1;durP2;ratioP2;P2;SDS_P1;SDS_P2;PMS_P1;PMS_P2;Temp;Humidity;BMP_temperature;BMP_pressure;BME280_temperature;BME280_humidity;BME280_pressure;Samples;Min_cycle;Max_cycle;Signal;HPM_P1;HPM_P2
2023/04/10 01:16:21;;;;;;;15.40;13.50;;;;;;;;;;4716640;30;20464;-77
2023/04/10 01:19:12;;;;;;;16.10;13.33;;;;;;;;;;4812153;29;20523;-77
2023/04/10 01:22:09;;;;;;;14.50;12.70;;;;;;;;;;4936436;29;20455;-78
2023/04/10 01:25:00;;;;;;;15.73;13.67;;;;;;;;;;4940862;29;20872;-77
2023/04/10 05:50:14;;;;;;;17.23;14.47;;;;;;;;;;4903118;29;20504;-78
2023/04/10 05:52:51;;;;;;;17.53;14.27;;;;;;;;;;4938774;29;20455;-77
2023/04/10 05:55:29;;;;;;;17.77;14.53;;;;;;;;;;4942037;29;20514;-78
2023/04/10 05:58:19;;;;;;;17.10;13.93;;;;;;;;;;4938594;29;20454;-77
2023/04/10 06:00:52;;;;;;;15.80;14.03;;;;;;;;;;4947567;28;20796;-78
2023/04/10 06:03:33;;;;;;;16.80;15.00;;;;;;;;;;4998619;28;20460;-77
2023/04/10 07:12:56;;;;;;;17.73;15.40;;;;;;;;;;5020924;28;20470;-78
2023/04/10 07:15:31;;;;;;;17.80;16.00;;;;;;;;;;5022404;28;20454;-77
2023/04/10 07:18:15;;;;;;;15.60;13.57;;;;;;;;;;5022302;28;20668;-78
2023/04/10 07:20:43;;;;;;;15.03;13.53;;;;;;;;;;5023272;28;20483;-79
2023/04/10 07:23:22;;;;;;;13.90;12.50;;;;;;;;;;5023787;28;20439;-77
2023/04/10 07:26:04;;;;;;;15.03;13.53;;;;;;;;;;5024659;28;20474;-78
2023/04/10 07:28:38;;;;;;;13.50;12.20;;;;;;;;;;5025348;28;20466;-78
2023/04/10 07:31:12;;;;;;;13.13;11.47;;;;;;;;;;5025793;28;20465;-78
2023/04/10 07:33:53;;;;;;;12.83;11.50;;;;;;;;;;5023629;28;20475;-77
2023/04/10 07:36:30;;;;;;;12.87;10.30;;;;;;;;;;5024399;28;20495;-78
2023/04/10 07:38:58;;;;;;;12.00;10.80;;;;;;;;;;5023084;28;20449;-77
2023/04/10 07:41:28;;;;;;;12.30;11.20;;;;;;;;;;5025038;28;20432;-78
2023/04/10 07:44:16;;;;;;;10.87;9.87;;;;;;;;;;5024056;28;20528;-77
2023/04/10 07:46:44;;;;;;;10.40;9.40;;;;;;;;;;5022620;28;20475;-78
2023/04/10 07:49:37;;;;;;;;;;;;;;;;;;;;;
2023/04/10 07:52:10;;;;;;;12.40;11.20;;;;;;;;;;5026897;28;20447;-78
2023/04/10 07:54:48;;;;;;;12.23;11.03;;;;;;;;;;5025073;28;20435;-77
2023/04/10 07:57:17;;;;;;;10.53;9.47;;;;;;;;;;5025299;28;20814;-79
2023/04/10 07:59:58;;;;;;;10.10;9.20;;;;;;;;;;5023241;28;20451;-78
2023/04/10 08:02:39;;;;;;;10.23;9.33;;;;;;;;;;5024219;28;20451;-78
2023/04/10 08:05:13;;;;;;;9.40;8.50;;;;;;;;;;5024303;28;20475;-77
2023/04/10 08:07:48;;;;;;;7.77;7.17;;;;;;;;;;5024990;28;20485;-78
2023/04/10 08:10:19;;;;;;;7.90;7.20;;;;;;;;;;5027060;28;20465;-77
2023/04/10 08:12:59;;;;;;;8.53;7.57;;;;;;;;;;5025671;28;20463;-77
2023/04/10 08:15:37;;;;;;;7.33;6.73;;;;;;;;;;5027613;28;20505;-77
2023/04/10 08:18:07;;;;;;;7.00;6.40;;;;;;;;;;5023626;28;20501;-77
2023/04/10 08:23:24;;;;;;;6.87;6.27;;;;;;;;;;5012933;28;20442;-78
2023/04/10 08:28:49;;;;;;;7.30;6.67;;;;;;;;;;5013686;28;20458;-78
2023/04/10 08:31:19;;;;;;;7.23;6.63;;;;;;;;;;5015552;28;20976;-77
2023/04/10 08:33:53;;;;;;;7.20;6.50;;;;;;;;;;5018011;28;20439;-77
2023/04/10 08:36:21;;;;;;;7.50;6.90;;;;;;;;;;5016705;28;20462;-77
2023/04/10 08:38:57;;;;;;;6.83;6.20;;;;;;;;;;5018142;28;20444;-77
2023/04/10 08:41:29;;;;;;;6.47;5.97;;;;;;;;;;5021669;28;20474;-78
2023/04/10 08:44:06;;;;;;;6.97;6.33;;;;;;;;;;5023357;28;20455;-78
2023/04/10 08:46:51;;;;;;;7.40;6.80;;;;;;;;;;5023394;28;20736;-77
2023/04/10 08:49:30;;;;;;;6.33;5.80;;;;;;;;;;5023340;28;20455;-77
2023/04/10 08:52:12;;;;;;;6.30;5.80;;;;;;;;;;5020881;28;20958;-78
2023/04/10 08:54:45;;;;;;;6.50;6.00;;;;;;;;;;5020776;28;20871;-77
2023/04/10 08:57:19;;;;;;;5.70;5.30;;;;;;;;;;5021378;28;20479;-78
2023/04/10 08:59:59;;;;;;;5.90;5.40;;;;;;;;;;5022870;28;20475;-78
2023/04/10 09:02:40;;;;;;;5.57;5.17;;;;;;;;;;5019483;28;20454;-79
2023/04/10 09:05:22;;;;;;;;;;;;;;;;;;;;;
2023/04/10 09:08:05;;;;;;;5.57;5.13;;;;;;;;;;5021432;28;20443;-78
2023/04/10 09:10:51;;;;;;;5.40;5.00;;;;;;;;;;5018040;28;20471;-77
2023/04/10 09:13:45;;;;;;;5.20;4.80;;;;;;;;;;5018380;28;20513;-78
2023/04/10 09:43:05;;;;;;;4.43;4.13;;;;;;;;;;5007777;28;20456;-79
2023/04/10 09:48:58;;;;;;;4.23;3.93;;;;;;;;;;5035926;28;20447;-77
2023/04/10 09:51:33;;;;;;;4.30;4.00;;;;;;;;;;5041770;28;20457;-76
2023/04/10 09:54:06;;;;;;;3.83;3.37;;;;;;;;;;5041584;28;20468;-78
2023/04/10 09:56:44;;;;;;;3.70;3.40;;;;;;;;;;5041918;28;20485;-77
2023/04/10 09:59:29;;;;;;;3.90;3.70;;;;;;;;;;5040587;28;20458;-76
2023/04/10 10:02:07;;;;;;;3.83;3.63;;;;;;;;;;5041314;28;20480;-78
2023/04/10 10:04:40;;;;;;;3.80;3.60;;;;;;;;;;5040150;28;20450;-77
2023/04/10 10:07:17;;;;;;;4.17;3.87;;;;;;;;;;5040769;28;20500;-78
2023/04/10 10:09:50;;;;;;;4.20;3.90;;;;;;;;;;5041987;28;20446;-78
2023/04/10 10:12:32;;;;;;;4.47;4.17;;;;;;;;;;5043696;28;20501;-78
2023/04/10 10:15:14;;;;;;;3.60;3.30;;;;;;;;;;5044990;28;20938;-77
2023/04/10 10:18:04;;;;;;;4.00;3.73;;;;;;;;;;5044944;28;20497;-78
2023/04/10 10:20:45;;;;;;;4.60;4.30;;;;;;;;;;5043498;28;20462;-76
2023/04/10 10:23:33;;;;;;;4.03;3.73;;;;;;;;;;5043112;28;20477;-77
2023/04/10 10:26:13;;;;;;;3.60;3.30;;;;;;;;;;5041249;28;20486;-76
2023/04/10 10:28:47;;;;;;;3.40;3.20;;;;;;;;;;5040463;28;20554;-76
2023/04/10 10:31:32;;;;;;;3.50;3.30;;;;;;;;;;5039770;28;20501;-76
2023/04/10 10:34:12;;;;;;;3.73;3.43;;;;;;;;;;5040212;28;20419;-75
2023/04/10 10:40:21;;;;;;;3.20;3.00;;;;;;;;;;4931191;29;20867;-77
2023/04/10 10:43:01;;;;;;;3.93;3.63;;;;;;;;;;4976864;28;20467;-77
2023/04/10 10:45:35;;;;;;;2.10;2.00;;;;;;;;;;5022161;28;21025;-77
2023/04/10 10:48:10;;;;;;;15.40;14.20;;;;;;;;;;5020489;28;20448;-76
2023/04/10 10:50:56;;;;;;;3.10;2.90;;;;;;;;;;5018441;28;21020;-76
2023/04/10 10:53:38;;;;;;;2.50;2.40;;;;;;;;;;5025849;28;20462;-76
2023/04/10 10:56:27;;;;;;;9.40;8.77;;;;;;;;;;5040750;28;20489;-76
2023/04/10 10:58:58;;;;;;;5.07;4.73;;;;;;;;;;5046785;28;20454;-76
2023/04/10 11:01:45;;;;;;;2.60;2.40;;;;;;;;;;5045630;28;20443;-77
2023/04/10 11:04:34;;;;;;;2.37;2.27;;;;;;;;;;5044792;28;20954;-76
2023/04/10 11:07:07;;;;;;;2.63;2.53;;;;;;;;;;5027840;28;21045;-76
2023/04/10 11:09:51;;;;;;;2.13;2.03;;;;;;;;;;5041825;28;20969;-77
2023/04/10 11:12:21;;;;;;;2.33;2.23;;;;;;;;;;5041246;28;20460;-75
2023/04/10 11:15:04;;;;;;;2.03;1.93;;;;;;;;;;5022231;28;20470;-75
2023/04/10 11:17:55;;;;;;;1.90;1.80;;;;;;;;;;5025315;28;20962;-77
2023/04/10 11:20:31;;;;;;;3.30;1.80;;;;;;;;;;5034612;28;20931;-76
2023/04/10 11:23:13;;;;;;;2.20;2.10;;;;;;;;;;5026141;28;20447;-77
2023/04/10 11:25:55;;;;;;;1.90;1.80;;;;;;;;;;5040437;28;20509;-76
2023/04/10 11:31:23;;;;;;;1.93;1.83;;;;;;;;;;5043163;28;20439;-75
2023/04/10 11:34:02;;;;;;;1.93;1.83;;;;;;;;;;5039154;28;21046;-76
2023/04/10 11:36:31;;;;;;;1.70;1.60;;;;;;;;;;5019232;28;20573;-76
2023/04/10 11:41:58;;;;;;;1.70;1.60;;;;;;;;;;5028724;28;20502;-77
2023/04/10 11:44:57;;;;;;;2.60;1.80;;;;;;;;;;5024616;28;20450;-77
2023/04/10 11:47:32;;;;;;;1.73;1.63;;;;;;;;;;5031702;28;20459;-76
2023/04/10 11:50:04;;;;;;;1.50;1.40;;;;;;;;;;5026382;28;20918;-76
2023/04/10 11:52:43;;;;;;;1.83;1.73;;;;;;;;;;5038595;28;20518;-75
2023/04/10 11:55:12;;;;;;;1.47;1.43;;;;;;;;;;5029061;28;20442;-76
2023/04/10 11:57:43;;;;;;;1.60;1.50;;;;;;;;;;5021251;28;20510;-75
2023/04/10 12:00:27;;;;;;;1.53;1.43;;;;;;;;;;5031304;28;20455;-76
2023/04/10 12:02:55;;;;;;;1.20;1.20;;;;;;;;;;5030779;28;20450;-77
2023/04/10 12:05:57;;;;;;;1.40;1.30;;;;;;;;;;5037601;28;20478;-77
2023/04/10 12:08:31;;;;;;;1.20;1.20;;;;;;;;;;5018344;28;20485;-76
2023/04/10 12:11:08;;;;;;;1.67;1.57;;;;;;;;;;5016337;28;20451;-77
2023/04/10 12:13:52;;;;;;;1.30;1.30;;;;;;;;;;5031997;28;20461;-76
2023/04/10 12:16:25;;;;;;;1.53;1.43;;;;;;;;;;5024470;28;20913;-77
2023/04/10 12:18:59;;;;;;;1.23;1.23;;;;;;;;;;5036119;28;20488;-76
2023/04/10 12:21:33;;;;;;;1.47;1.37;;;;;;;;;;5019030;28;21004;-75
2023/04/10 12:24:07;;;;;;;1.03;1.03;;;;;;;;;;5033929;28;20466;-77
2023/04/10 12:26:36;;;;;;;1.00;1.00;;;;;;;;;;5034410;28;20481;-76
2023/04/10 12:29:08;;;;;;;0.90;0.90;;;;;;;;;;5034034;28;20450;-78
2023/04/10 12:31:46;;;;;;;0.80;0.80;;;;;;;;;;5032867;28;20454;-77
2023/04/10 12:34:27;;;;;;;0.90;0.90;;;;;;;;;;5032457;28;20529;-77
2023/04/10 12:37:01;;;;;;;0.70;0.70;;;;;;;;;;5021706;28;20463;-76
2023/04/10 12:39:32;;;;;;;0.70;0.70;;;;;;;;;;5020988;28;20820;-76
2023/04/10 12:42:13;;;;;;;1.10;1.10;;;;;;;;;;5011949;28;20455;-77
2023/04/10 12:45:08;;;;;;;0.80;0.80;;;;;;;;;;5012520;28;20541;-76
2023/04/10 12:47:51;;;;;;;0.90;0.90;;;;;;;;;;5011325;28;20998;-77
2023/04/10 12:50:21;;;;;;;0.90;0.90;;;;;;;;;;5013428;28;20961;-77
2023/04/10 12:53:06;;;;;;;0.80;0.80;;;;;;;;;;5013343;28;20462;-76
2023/04/10 12:55:39;;;;;;;1.20;1.10;;;;;;;;;;5014466;28;20443;-76
2023/04/10 12:58:18;;;;;;;1.27;1.27;;;;;;;;;;5014916;28;20447;-76
2023/04/10 13:00:52;;;;;;;1.50;1.20;;;;;;;;;;5015405;28;20554;-76
2023/04/10 13:03:35;;;;;;;1.20;1.07;;;;;;;;;;5022790;28;20518;-77
2023/04/10 13:06:13;;;;;;;0.80;0.80;;;;;;;;;;5032880;28;20581;-77
2023/04/10 13:08:43;;;;;;;1.50;1.40;;;;;;;;;;5029977;28;20477;-77
2023/04/10 13:11:26;;;;;;;1.00;1.00;;;;;;;;;;5019516;28;20443;-77
2023/04/10 13:13:59;;;;;;;0.97;0.97;;;;;;;;;;5016673;28;20463;-77
2023/04/10 13:16:32;;;;;;;1.10;1.10;;;;;;;;;;5016108;28;20471;-76
2023/04/10 13:19:11;;;;;;;1.20;1.20;;;;;;;;;;5035675;28;20470;-75
2023/04/10 13:24:40;;;;;;;1.03;1.03;;;;;;;;;;5036195;28;20461;-77
2023/04/10 13:27:13;;;;;;;1.27;1.27;;;;;;;;;;5036102;28;20669;-79
2023/04/10 13:29:57;;;;;;;1.30;1.30;;;;;;;;;;5035739;28;20454;-76
2023/04/10 13:32:26;;;;;;;1.27;1.20;;;;;;;;;;5036548;28;20533;-76
2023/04/10 13:34:56;;;;;;;2.17;1.50;;;;;;;;;;5035468;28;20466;-77
2023/04/10 13:37:25;;;;;;;1.23;1.23;;;;;;;;;;5033545;28;20470;-76
2023/04/10 13:39:53;;;;;;;1.20;1.20;;;;;;;;;;5038167;28;20454;-75
2023/04/10 13:42:24;;;;;;;1.23;1.23;;;;;;;;;;5029750;28;20494;-76
2023/04/10 13:44:55;;;;;;;1.93;1.30;;;;;;;;;;5034577;28;20465;-76
2023/04/10 13:47:26;;;;;;;1.80;1.70;;;;;;;;;;5025707;28;20945;-76
2023/04/10 13:50:04;;;;;;;1.83;1.73;;;;;;;;;;5017320;28;20451;-76
2023/04/10 13:52:41;;;;;;;1.33;1.33;;;;;;;;;;5033716;28;20435;-76
2023/04/10 13:55:11;;;;;;;1.70;1.60;;;;;;;;;;5022584;28;20447;-75
2023/04/10 13:57:50;;;;;;;1.70;1.63;;;;;;;;;;5022928;28;20478;-77
2023/04/10 14:00:33;;;;;;;1.43;1.40;;;;;;;;;;5022048;28;20457;-75
2023/04/10 14:03:09;;;;;;;2.00;1.90;;;;;;;;;;5021761;28;20439;-77
2023/04/10 14:05:51;;;;;;;1.83;1.73;;;;;;;;;;5013158;28;20555;-77
2023/04/10 14:08:23;;;;;;;1.20;1.20;;;;;;;;;;5021993;28;20539;-76
2023/04/10 14:10:58;;;;;;;1.77;1.60;;;;;;;;;;5035445;28;20458;-77
2023/04/10 14:13:42;;;;;;;1.97;1.70;;;;;;;;;;5031590;28;20455;-75
2023/04/10 14:16:13;;;;;;;1.70;1.60;;;;;;;;;;5035601;28;20454;-76
2023/04/10 14:37:36;;;;;;;1.87;1.77;;;;;;;;;;5025314;28;20447;-75
2023/04/10 14:40:11;;;;;;;1.83;1.73;;;;;;;;;;5041184;28;20443;-76
2023/04/10 14:42:42;;;;;;;2.20;2.10;;;;;;;;;;5040322;28;20480;-76
2023/04/10 14:45:16;;;;;;;1.90;1.80;;;;;;;;;;5042041;28;20450;-76
2023/04/10 14:47:48;;;;;;;1.60;1.50;;;;;;;;;;5042527;28;20564;-75
2023/04/10 14:50:17;;;;;;;1.50;1.40;;;;;;;;;;5043973;28;20453;-75
2023/04/10 14:52:45;;;;;;;1.73;1.63;;;;;;;;;;5043207;28;20458;-74
2023/04/10 14:58:30;;;;;;;2.27;2.10;;;;;;;;;;5047807;28;20450;-76
2023/04/10 15:01:24;;;;;;;1.80;1.70;;;;;;;;;;5047782;28;20522;-76
2023/04/10 15:04:21;;;;;;;1.70;1.67;;;;;;;;;;5039303;28;20477;-75
2023/04/10 15:09:45;;;;;;;2.00;1.90;;;;;;;;;;5010727;28;20499;-76
2023/04/10 15:12:23;;;;;;;2.03;1.93;;;;;;;;;;5013958;28;20476;-76
2023/04/10 15:14:59;;;;;;;2.30;2.07;;;;;;;;;;5022149;28;20455;-75
2023/04/10 15:17:28;;;;;;;1.90;1.80;;;;;;;;;;5017829;28;20460;-75
2023/04/10 15:20:13;;;;;;;1.73;1.63;;;;;;;;;;5039968;28;20454;-75
2023/04/10 15:22:44;;;;;;;2.83;1.80;;;;;;;;;;5043128;28;20461;-75
2023/04/10 15:28:22;;;;;;;2.30;2.20;;;;;;;;;;5039626;28;20847;-75
2023/04/10 15:30:54;;;;;;;1.80;1.70;;;;;;;;;;5042215;28;20474;-75
2023/04/10 15:33:22;;;;;;;2.20;2.10;;;;;;;;;;5037885;28;20454;-75
2023/04/10 15:35:52;;;;;;;2.43;2.27;;;;;;;;;;5036758;28;20561;-76
2023/04/10 15:38:20;;;;;;;1.80;1.70;;;;;;;;;;5035351;28;20482;-76
2023/04/10 15:40:48;;;;;;;1.60;1.50;;;;;;;;;;5035158;28;20454;-74
2023/04/10 15:43:18;;;;;;;1.80;1.70;;;;;;;;;;5035503;28;20485;-78
2023/04/10 15:45:46;;;;;;;2.23;2.13;;;;;;;;;;5036034;28;20470;-76
2023/04/10 15:48:14;;;;;;;2.33;2.13;;;;;;;;;;5036974;28;20466;-78
2023/04/10 15:50:43;;;;;;;2.03;1.93;;;;;;;;;;5061686;28;20843;-76
2023/04/10 15:53:20;;;;;;;1.73;1.57;;;;;;;;;;5061748;28;20449;-76
2023/04/10 15:55:57;;;;;;;2.60;2.10;;;;;;;;;;5064894;28;21120;-76
2023/04/10 15:58:28;;;;;;;2.50;2.30;;;;;;;;;;5067434;28;20512;-77
2023/04/10 16:01:01;;;;;;;2.27;2.10;;;;;;;;;;5065362;28;20449;-77
2023/04/10 16:03:30;;;;;;;2.10;1.90;;;;;;;;;;5062016;28;20493;-76
2023/04/10 16:06:20;;;;;;;1.87;1.77;;;;;;;;;;5061742;28;20520;-75
2023/04/10 16:08:55;;;;;;;1.80;1.70;;;;;;;;;;5060083;28;20438;-75
2023/04/10 16:11:27;;;;;;;3.60;2.00;;;;;;;;;;5059481;28;20518;-77
2023/04/10 16:14:10;;;;;;;2.03;1.93;;;;;;;;;;5058891;28;20584;-77
2023/04/10 16:16:53;;;;;;;2.80;2.60;;;;;;;;;;5057504;28;20487;-79
2023/04/10 16:19:26;;;;;;;1.70;1.60;;;;;;;;;;5046082;28;20477;-75
2023/04/10 16:21:55;;;;;;;2.03;1.93;;;;;;;;;;5035939;28;20458;-77
2023/04/10 16:24:28;;;;;;;2.27;2.17;;;;;;;;;;5035064;28;20490;-76
2023/04/10 16:27:00;;;;;;;1.97;1.50;;;;;;;;;;5035708;28;20479;-76
2023/04/10 16:29:31;;;;;;;2.60;2.40;;;;;;;;;;5035606;28;20503;-77
2023/04/10 16:32:02;;;;;;;2.10;2.00;;;;;;;;;;5035494;28;20874;-77
2023/04/10 16:34:36;;;;;;;3.43;2.20;;;;;;;;;;5038353;28;20457;-75
2023/04/10 16:37:04;;;;;;;2.33;2.23;;;;;;;;;;5046878;28;20466;-75
2023/04/10 16:39:41;;;;;;;1.93;1.80;;;;;;;;;;5055703;28;20441;-75
2023/04/10 16:42:15;;;;;;;2.23;2.13;;;;;;;;;;5036592;28;20983;-77
2023/04/10 16:44:47;;;;;;;2.33;2.13;;;;;;;;;;5035670;28;20477;-77
2023/04/10 16:47:22;;;;;;;2.20;2.10;;;;;;;;;;5041853;28;20509;-77
2023/04/10 16:50:01;;;;;;;1.73;1.63;;;;;;;;;;5042258;28;20442;-76
2023/04/10 16:52:30;;;;;;;2.47;2.27;;;;;;;;;;5042464;28;20445;-76
2023/04/10 16:55:04;;;;;;;2.40;2.20;;;;;;;;;;5036273;28;20488;-76
2023/04/10 16:57:44;;;;;;;2.97;2.53;;;;;;;;;;5034005;28;20935;-77
2023/04/10 17:00:13;;;;;;;2.77;2.57;;;;;;;;;;5033992;28;20445;-76
2023/04/10 17:02:47;;;;;;;2.80;2.60;;;;;;;;;;5035389;28;20454;-76
2023/04/10 17:05:17;;;;;;;2.30;2.20;;;;;;;;;;5035877;28;20457;-77
2023/04/10 17:10:39;;;;;;;4.47;4.07;;;;;;;;;;5035243;28;21071;-76
2023/04/10 17:13:10;;;;;;;3.60;3.37;;;;;;;;;;5036083;28;20448;-75
2023/04/10 17:15:47;;;;;;;2.57;2.30;;;;;;;;;;5034824;28;21370;-76
2023/04/10 17:18:18;;;;;;;2.33;2.13;;;;;;;;;;5046587;28;20829;-77
2023/04/10 17:20:56;;;;;;;2.03;1.90;;;;;;;;;;5055541;28;20449;-78
2023/04/10 17:23:24;;;;;;;2.83;2.63;;;;;;;;;;5055731;28;20445;-76
2023/04/10 17:26:07;;;;;;;2.90;2.70;;;;;;;;;;5056170;28;20472;-76
2023/04/10 17:28:36;;;;;;;2.27;2.17;;;;;;;;;;5058081;28;20724;-76
2023/04/10 17:31:21;;;;;;;2.63;2.23;;;;;;;;;;5059557;28;20937;-77
2023/04/10 17:33:54;;;;;;;2.20;2.10;;;;;;;;;;5057466;28;20507;-77
2023/04/10 17:36:42;;;;;;;2.40;2.23;;;;;;;;;;5062995;28;20578;-76
2023/04/10 17:39:27;;;;;;;2.53;2.33;;;;;;;;;;5061935;28;20458;-76
2023/04/10 17:42:03;;;;;;;2.57;2.37;;;;;;;;;;5059134;28;20472;-75
2023/04/10 17:44:35;;;;;;;2.53;2.33;;;;;;;;;;5020758;28;20455;-78
2023/04/10 17:47:06;;;;;;;2.87;2.27;;;;;;;;;;5022141;28;20483;-76
2023/04/10 17:49:40;;;;;;;2.43;2.30;;;;;;;;;;5021492;28;20432;-77
2023/04/10 17:52:11;;;;;;;2.30;2.10;;;;;;;;;;5021732;28;20418;-77
2023/04/10 17:54:38;;;;;;;2.30;2.10;;;;;;;;;;5018550;28;20500;-76
2023/04/10 17:57:07;;;;;;;2.60;2.40;;;;;;;;;;5017967;28;20514;-78
2023/04/10 17:59:41;;;;;;;2.03;1.93;;;;;;;;;;5042836;28;20437;-77
2023/04/10 18:02:15;;;;;;;2.03;1.93;;;;;;;;;;5056346;28;20429;-76
2023/04/10 18:04:59;;;;;;;2.33;2.23;;;;;;;;;;5050558;28;20515;-76
2023/04/10 18:07:40;;;;;;;3.23;2.40;;;;;;;;;;5044405;28;20492;-76
2023/04/10 18:10:16;;;;;;;2.50;2.30;;;;;;;;;;5044728;28;20461;-77
2023/04/10 18:13:00;;;;;;;;;;;;;;;;;;;;;
2023/04/10 18:15:39;;;;;;;2.13;1.93;;;;;;;;;;5044324;28;20399;-76
2023/04/10 18:18:13;;;;;;;2.40;2.30;;;;;;;;;;5046873;28;20434;-76
2023/04/10 18:20:59;;;;;;;2.90;2.67;;;;;;;;;;5022077;28;20462;-76
2023/04/10 18:23:27;;;;;;;4.53;4.13;;;;;;;;;;5020734;28;20435;-76
2023/04/10 18:26:06;;;;;;;3.20;2.90;;;;;;;;;;5019430;28;20493;-77
2023/04/10 18:28:42;;;;;;;2.53;2.33;;;;;;;;;;5019205;28;21010;-75
2023/04/10 18:31:17;;;;;;;2.40;2.20;;;;;;;;;;5019158;28;20451;-76
2023/04/10 18:33:46;;;;;;;2.60;2.40;;;;;;;;;;5018964;28;20950;-75
2023/04/10 18:36:23;;;;;;;3.10;2.90;;;;;;;;;;5039898;28;20463;-76
2023/04/10 18:38:58;;;;;;;2.83;2.40;;;;;;;;;;5037027;28;20454;-76
2023/04/10 18:41:41;;;;;;;3.23;2.30;;;;;;;;;;5040004;28;20450;-77
2023/04/10 18:47:47;;;;;;;2.87;2.67;;;;;;;;;;5026018;28;20512;-77
2023/04/10 18:50:17;;;;;;;3.20;3.00;;;;;;;;;;5041802;28;20446;-76
2023/04/10 18:52:53;;;;;;;3.33;3.03;;;;;;;;;;5041421;28;20470;-77
2023/04/10 18:55:26;;;;;;;2.63;2.43;;;;;;;;;;5042370;28;20442;-76
2023/04/10 18:57:54;;;;;;;2.80;2.60;;;;;;;;;;5043386;28;20435;-75
2023/04/10 19:00:23;;;;;;;3.20;2.90;;;;;;;;;;5043515;28;20451;-75
2023/04/10 19:02:54;;;;;;;3.33;3.00;;;;;;;;;;5039387;28;20970;-76
2023/04/10 19:05:26;;;;;;;2.50;2.30;;;;;;;;;;5040937;28;20997;-76
2023/04/10 19:07:58;;;;;;;2.70;2.50;;;;;;;;;;5040053;28;20532;-75
2023/04/10 19:10:39;;;;;;;2.03;1.93;;;;;;;;;;5040046;28;20467;-78
2023/04/10 19:13:07;;;;;;;2.60;2.50;;;;;;;;;;5040375;28;20431;-77
2023/04/10 19:15:40;;;;;;;2.60;2.50;;;;;;;;;;5040414;28;20465;-76
2023/04/10 19:18:13;;;;;;;3.23;2.90;;;;;;;;;;5052043;28;20474;-78
2023/04/10 19:20:43;;;;;;;4.03;3.63;;;;;;;;;;5060923;28;20824;-76
2023/04/10 19:23:11;;;;;;;3.37;3.17;;;;;;;;;;5048466;28;20451;-77
2023/04/10 19:25:40;;;;;;;4.10;3.80;;;;;;;;;;5038111;28;20482;-78
2023/04/10 19:28:08;;;;;;;4.10;3.40;;;;;;;;;;5040714;28;20466;-76
2023/04/10 19:30:43;;;;;;;5.47;3.37;;;;;;;;;;5041800;28;20451;-77
2023/04/10 19:33:20;;;;;;;3.47;3.17;;;;;;;;;;5040669;28;20925;-75
2023/04/10 19:35:54;;;;;;;4.60;3.40;;;;;;;;;;5040638;28;20565;-77
2023/04/10 19:38:22;;;;;;;4.57;4.10;;;;;;;;;;5041102;28;20839;-77
2023/04/10 19:40:53;;;;;;;4.10;3.70;;;;;;;;;;5039088;28;20485;-76
2023/04/10 19:43:22;;;;;;;4.20;3.80;;;;;;;;;;5042154;28;20450;-76
2023/04/10 19:45:53;;;;;;;3.50;3.20;;;;;;;;;;5041896;28;20466;-76
2023/04/10 19:48:30;;;;;;;3.33;3.03;;;;;;;;;;5044101;28;20473;-76
2023/04/10 19:51:11;;;;;;;3.93;3.60;;;;;;;;;;5048397;28;20469;-76
2023/04/10 19:53:42;;;;;;;3.40;3.20;;;;;;;;;;5037763;28;20984;-76
2023/04/10 19:56:12;;;;;;;3.20;3.00;;;;;;;;;;5038093;28;20534;-75
2023/04/10 19:58:46;;;;;;;3.60;3.30;;;;;;;;;;5039786;28;20442;-76
2023/04/10 20:01:35;;;;;;;3.57;3.27;;;;;;;;;;5046340;28;20870;-77
2023/04/10 20:04:03;;;;;;;4.50;3.37;;;;;;;;;;5040258;28;20569;-77
2023/04/10 20:06:33;;;;;;;4.00;3.70;;;;;;;;;;5052084;28;20473;-77
2023/04/10 20:09:03;;;;;;;2.90;2.60;;;;;;;;;;5058514;28;20560;-76
2023/04/10 20:11:35;;;;;;;3.00;2.80;;;;;;;;;;5041050;28;20443;-76
2023/04/10 20:14:03;;;;;;;3.10;2.90;;;;;;;;;;5034135;28;20451;-76
2023/04/10 20:16:35;;;;;;;2.67;2.57;;;;;;;;;;5033514;28;20499;-77
2023/04/10 20:19:03;;;;;;;2.87;2.67;;;;;;;;;;5050862;28;20491;-76
2023/04/10 20:24:39;;;;;;;3.10;2.90;;;;;;;;;;5055692;28;20400;-76
2023/04/10 20:29:58;;;;;;;2.80;2.70;;;;;;;;;;4984394;28;20436;-76
2023/04/10 20:36:17;;;;;;;3.60;3.40;;;;;;;;;;5051941;28;20458;-76
2023/04/10 20:42:06;;;;;;;2.97;2.77;;;;;;;;;;5038414;28;20461;-76
2023/04/10 20:44:42;;;;;;;3.33;2.70;;;;;;;;;;5058180;28;20460;-75
2023/04/10 20:53:34;;;;;;;3.77;2.70;;;;;;;;;;5045579;28;20453;-76
2023/04/10 20:56:24;;;;;;;2.60;2.50;;;;;;;;;;5059751;28;20494;-75
2023/04/10 20:58:53;;;;;;;2.57;2.47;;;;;;;;;;5035077;28;20453;-76
2023/04/10 21:01:30;;;;;;;3.10;2.90;;;;;;;;;;5055300;28;20454;-78
2023/04/10 21:04:01;;;;;;;4.03;3.00;;;;;;;;;;5055416;28;20453;-76
2023/04/10 21:06:41;;;;;;;2.90;2.70;;;;;;;;;;5054808;28;21023;-76
2023/04/10 21:09:09;;;;;;;2.80;2.60;;;;;;;;;;5055224;28;20476;-76
2023/04/10 21:11:38;;;;;;;2.30;2.20;;;;;;;;;;5055403;28;20433;-76
2023/04/10 21:14:08;;;;;;;3.23;3.03;;;;;;;;;;5054233;28;21028;-75
2023/04/10 21:16:42;;;;;;;2.97;2.77;;;;;;;;;;5053875;28;20814;-76
2023/04/10 21:19:25;;;;;;;3.00;2.80;;;;;;;;;;5054586;28;20474;-76
2023/04/10 21:21:57;;;;;;;2.60;2.50;;;;;;;;;;5052933;28;20867;-76
2023/04/10 21:24:28;;;;;;;2.80;2.60;;;;;;;;;;5051924;28;20852;-75
2023/04/10 21:26:59;;;;;;;2.67;2.50;;;;;;;;;;5040670;28;21122;-77
2023/04/10 21:29:52;;;;;;;2.50;2.30;;;;;;;;;;5038376;28;20501;-76
2023/04/10 21:32:28;;;;;;;2.73;2.53;;;;;;;;;;5035789;28;20427;-76
2023/04/10 21:35:00;;;;;;;2.70;2.50;;;;;;;;;;5035788;28;20481;-77
2023/04/10 21:37:43;;;;;;;2.80;2.60;;;;;;;;;;5037589;28;20482;-76
2023/04/10 21:40:28;;;;;;;3.20;2.90;;;;;;;;;;5038354;28;20446;-75
2023/04/10 21:42:57;;;;;;;2.70;2.53;;;;;;;;;;5039167;28;20443;-76
2023/04/10 21:45:25;;;;;;;2.83;2.63;;;;;;;;;;5039169;28;20450;-77
2023/04/10 21:48:05;;;;;;;2.73;2.53;;;;;;;;;;5036482;28;20454;-75
2023/04/10 21:50:33;;;;;;;2.50;2.40;;;;;;;;;;5035992;28;20458;-75
2023/04/10 21:53:10;;;;;;;2.47;2.37;;;;;;;;;;5036213;28;20451;-76
2023/04/10 21:55:44;;;;;;;2.00;1.90;;;;;;;;;;5038454;28;20458;-78
2023/04/10 21:58:18;;;;;;;2.90;2.80;;;;;;;;;;5034527;28;20446;-76
2023/04/10 22:00:48;;;;;;;2.67;2.47;;;;;;;;;;5034568;28;20452;-75
2023/04/10 22:03:30;;;;;;;3.33;3.13;;;;;;;;;;5043275;28;20461;-76
2023/04/10 22:06:03;;;;;;;2.87;2.77;;;;;;;;;;5056071;28;20500;-76
2023/04/10 22:08:32;;;;;;;2.47;2.27;;;;;;;;;;5051230;28;20474;-77
2023/04/10 22:11:06;;;;;;;3.00;2.80;;;;;;;;;;5039031;28;20514;-77
2023/04/10 22:16:25;;;;;;;3.40;3.10;;;;;;;;;;5031676;28;20462;-77
2023/04/10 22:19:10;;;;;;;3.03;2.83;;;;;;;;;;5044161;28;20442;-76
2023/04/10 22:21:46;;;;;;;2.93;2.63;;;;;;;;;;5051495;28;20533;-76
2023/04/10 22:24:15;;;;;;;2.93;2.73;;;;;;;;;;5061142;28;20460;-75
2023/04/10 22:26:55;;;;;;;3.13;2.93;;;;;;;;;;5056768;28;20816;-78
2023/04/10 22:29:28;;;;;;;2.60;2.40;;;;;;;;;;5068206;28;20473;-78
2023/04/10 22:34:45;;;;;;;2.50;2.40;;;;;;;;;;5042387;28;20457;-77
2023/04/10 22:37:18;;;;;;;2.63;2.43;;;;;;;;;;5069590;28;20482;-76
2023/04/10 22:39:54;;;;;;;2.60;2.43;;;;;;;;;;5067632;28;20478;-77
2023/04/10 22:42:32;;;;;;;2.13;2.03;;;;;;;;;;5051139;28;20480;-78
2023/04/10 22:45:04;;;;;;;3.03;2.83;;;;;;;;;;5044207;28;20450;-77
2023/04/10 22:50:16;;;;;;;2.70;2.50;;;;;;;;;;5043716;28;20486;-76
2023/04/10 22:52:45;;;;;;;3.10;2.90;;;;;;;;;;5044362;28;20512;-77
2023/04/10 22:55:16;;;;;;;2.80;2.70;;;;;;;;;;5045173;28;20893;-77
2023/04/10 22:57:50;;;;;;;4.80;3.03;;;;;;;;;;5040083;28;20512;-77
2023/04/10 23:00:19;;;;;;;3.17;2.87;;;;;;;;;;5040884;28;20446;-76
2023/04/10 23:02:46;;;;;;;3.20;3.00;;;;;;;;;;5042984;28;20458;-76
2023/04/10 23:05:19;;;;;;;2.80;2.60;;;;;;;;;;5041580;28;20469;-77
2023/04/10 23:07:51;;;;;;;2.73;2.63;;;;;;;;;;5043505;28;20853;-76
2023/04/10 23:10:28;;;;;;;2.60;2.40;;;;;;;;;;5041692;28;20494;-77
2023/04/10 23:12:57;;;;;;;3.20;2.87;;;;;;;;;;5037964;28;20536;-77
2023/04/10 23:15:31;;;;;;;2.93;2.63;;;;;;;;;;5036294;28;20489;-76
2023/04/10 23:18:04;;;;;;;3.63;2.70;;;;;;;;;;5035696;28;20517;-76
2023/04/10 23:20:36;;;;;;;2.80;2.37;;;;;;;;;;5036309;28;20469;-78
2023/04/10 23:23:09;;;;;;;2.90;2.70;;;;;;;;;;5035777;28;20498;-78
2023/04/10 23:25:37;;;;;;;2.67;2.40;;;;;;;;;;5035407;28;20451;-77
2023/04/10 23:28:08;;;;;;;2.20;2.10;;;;;;;;;;5037301;28;20454;-76
2023/04/10 23:30:42;;;;;;;2.20;2.10;;;;;;;;;;5037802;28;20466;-78
2023/04/10 23:33:11;;;;;;;5.70;2.20;;;;;;;;;;5046292;28;20994;-77
2023/04/10 23:35:42;;;;;;;2.30;2.20;;;;;;;;;;5037892;28;20976;-75
2023/04/10 23:41:21;;;;;;;2.80;2.03;;;;;;;;;;5050466;28;20437;-77
2023/04/10 23:43:59;;;;;;;2.07;1.97;;;;;;;;;;5062007;28;20446;-77
2023/04/10 23:46:29;;;;;;;2.60;2.27;;;;;;;;;;5067555;28;20462;-77
2023/04/10 23:52:09;;;;;;;2.40;1.90;;;;;;;;;;5077120;28;20481;-76
2023/04/10 23:54:45;;;;;;;3.13;1.97;;;;;;;;;;5078234;28;20453;-75
2023/04/10 23:57:17;;;;;;;2.20;1.80;;;;;;;;;;5077946;28;20484;-76
